Time;durP1;ratioP1;P1;durP2;ratioP2;P2;SDS_P1;SDS_P2;PMS_P1;PMS_P2;Temp;Humidity;BMP_temperature;BMP_pressure;BME280_temperature;BME280_humidity;BME280_pressure;Samples;Min_cycle;Max_cycle;Signal;HPM_P1;HPM_P2
2022/10/05 00:01:19;;;;;;;11.43;7.55;;;;;;;16.20;65.69;101696.25;5058789;28;20110;-60
2022/10/05 00:03:44;;;;;;;13.18;8.10;;;;;;;16.16;65.77;101690.34;5074782;28;20029;-59
2022/10/05 00:06:11;;;;;;;11.38;7.50;;;;;;;16.16;65.81;101692.31;5055318;28;20491;-59
2022/10/05 00:08:36;;;;;;;11.15;8.05;;;;;;;16.15;65.88;101682.19;5054704;28;20028;-59
2022/10/05 00:11:05;;;;;;;13.32;8.32;;;;;;;16.10;66.28;101684.97;5051535;28;20219;-60
2022/10/05 00:13:30;;;;;;;11.52;8.10;;;;;;;16.11;66.19;101689.47;5068444;28;20035;-59
2022/10/05 00:16:11;;;;;;;9.15;7.97;;;;;;;16.12;66.05;101686.41;5070828;28;20060;-60
2022/10/05 00:18:37;;;;;;;9.95;8.07;;;;;;;16.09;66.39;101680.50;5081762;28;20032;-59
2022/10/05 00:21:16;;;;;;;12.52;7.90;;;;;;;16.09;66.39;101684.13;5077353;28;20551;-59
2022/10/05 00:23:41;;;;;;;14.32;8.52;;;;;;;16.12;66.41;101672.41;5059374;28;20028;-59
2022/10/05 00:26:20;;;;;;;10.30;8.40;;;;;;;16.12;66.27;101661.19;5070538;28;20368;-60
2022/10/05 00:28:46;;;;;;;10.63;8.57;;;;;;;16.07;66.37;101663.09;5072914;28;20464;-59
2022/10/05 00:31:29;;;;;;;13.68;8.50;;;;;;;16.10;66.23;101674.63;5070907;28;20037;-59
2022/10/05 00:33:54;;;;;;;11.38;8.50;;;;;;;16.08;66.39;101673.22;5085038;28;20048;-60
2022/10/05 00:36:19;;;;;;;15.88;9.27;;;;;;;16.07;66.46;101674.31;5094487;28;20031;-59
2022/10/05 00:38:45;;;;;;;13.52;9.07;;;;;;;16.03;66.56;101671.19;5081791;28;20024;-60
2022/10/05 00:41:21;;;;;;;13.38;8.55;;;;;;;16.01;66.58;101659.44;5061389;28;20036;-60
2022/10/05 00:44:23;;;;;;;9.85;8.82;;;;;;;16.05;66.67;101663.38;5053711;28;20481;-60
2022/10/05 00:47:10;;;;;;;11.02;8.63;;;;;;;16.09;66.47;101660.91;5053811;28;20052;-60
2022/10/05 00:50:20;;;;;;;12.82;8.27;;;;;;;16.09;66.31;101680.50;5053202;28;20103;-59
2022/10/05 00:53:16;;;;;;;14.82;9.15;;;;;;;16.03;66.59;101670.38;5072197;28;20074;-59
2022/10/05 00:56:00;;;;;;;13.30;8.98;;;;;;;16.01;66.76;101669.81;5072871;28;20048;-59
2022/10/05 00:58:57;;;;;;;13.50;8.55;;;;;;;16.03;66.64;101675.97;5055101;28;20124;-60
2022/10/05 01:01:42;;;;;;;11.18;8.73;;;;;;;15.99;66.77;101666.41;5061932;28;20040;-59
2022/10/05 01:04:30;;;;;;;10.25;8.43;;;;;;;16.04;66.65;101655.28;5075424;28;20038;-59
2022/10/05 01:07:24;;;;;;;12.30;8.70;;;;;;;16.04;66.79;101656.13;5093693;28;20076;-60
2022/10/05 01:10:17;;;;;;;12.38;8.60;;;;;;;16.08;66.52;101662.03;5062292;28;20036;-60
2022/10/05 01:13:14;;;;;;;12.38;8.95;;;;;;;16.05;66.58;101652.19;5073392;28;20025;-59
2022/10/05 01:15:54;;;;;;;10.32;8.63;;;;;;;16.02;67.07;101646.28;5073454;28;20051;-60
2022/10/05 01:18:44;;;;;;;12.63;8.75;;;;;;;16.01;67.06;101639.00;5073267;28;20028;-59
2022/10/05 01:21:19;;;;;;;10.93;8.82;;;;;;;15.97;67.15;101638.69;5053150;28;20036;-59
2022/10/05 01:23:54;;;;;;;14.10;8.88;;;;;;;16.03;66.71;101636.75;5067275;28;20027;-60
2022/10/05 01:26:33;;;;;;;12.85;8.95;;;;;;;15.90;67.32;101641.72;5067902;28;20491;-60
2022/10/05 01:29:16;;;;;;;10.00;8.88;;;;;;;15.97;66.98;101632.25;5062139;28;20036;-60
2022/10/05 01:31:59;;;;;;;10.10;8.48;;;;;;;15.98;66.98;101631.13;5053796;28;20037;-61
2022/10/05 01:34:46;;;;;;;13.23;9.75;;;;;;;15.97;66.94;101635.06;5052655;28;20064;-60
2022/10/05 01:37:25;;;;;;;12.95;8.32;;;;;;;15.94;67.15;101637.28;5058451;28;20451;-60
2022/10/05 01:40:03;;;;;;;15.20;8.95;;;;;;;15.91;67.11;101634.16;5055350;28;20064;-60
2022/10/05 01:42:36;;;;;;;10.93;8.02;;;;;;;15.87;67.39;101633.84;5052704;28;20029;-60
2022/10/05 01:45:16;;;;;;;10.60;8.68;;;;;;;15.89;67.27;101626.06;5082842;28;20032;-60
2022/10/05 01:47:48;;;;;;;10.65;8.80;;;;;;;15.86;67.47;101623.78;5054106;28;20423;-60
2022/10/05 01:50:29;;;;;;;9.85;8.13;;;;;;;15.87;67.45;101625.47;5069241;28;20036;-59
2022/10/05 01:53:36;;;;;;;11.57;8.98;;;;;;;15.89;67.23;101614.84;5051824;28;20083;-60
2022/10/05 01:56:25;;;;;;;10.98;8.70;;;;;;;15.90;67.20;101613.72;5055564;28;20055;-60
2022/10/05 01:59:16;;;;;;;12.63;8.70;;;;;;;15.89;67.38;101614.00;5058654;28;20037;-60
2022/10/05 02:01:55;;;;;;;11.23;8.48;;;;;;;15.85;67.49;101598.88;5052166;28;20036;-61
2022/10/05 02:04:32;;;;;;;11.32;8.32;;;;;;;15.83;67.61;101598.28;5077162;28;20047;-60
2022/10/05 02:07:00;;;;;;;10.52;8.25;;;;;;;15.84;67.61;101591.59;5091608;28;20024;-60
2022/10/05 02:09:30;;;;;;;10.65;8.32;;;;;;;15.79;67.73;101595.19;5068763;28;20051;-60
2022/10/05 02:12:13;;;;;;;12.65;8.63;;;;;;;15.86;67.51;101593.00;5071916;28;20479;-60
2022/10/05 02:14:42;;;;;;;12.65;9.02;;;;;;;15.78;67.62;101581.47;5052263;28;20540;-60
2022/10/05 02:17:19;;;;;;;10.10;7.90;;;;;;;15.81;67.65;101587.38;5052088;28;20144;-59
2022/10/05 02:19:49;;;;;;;9.32;8.35;;;;;;;15.80;67.71;101582.88;5080651;28;20044;-60
2022/10/05 02:22:20;;;;;;;10.85;7.85;;;;;;;15.78;67.62;101585.09;5092236;28;20142;-59
2022/10/05 02:24:52;;;;;;;10.57;8.07;;;;;;;15.78;67.72;101579.50;5068919;28;20097;-60
2022/10/05 02:27:24;;;;;;;10.65;7.57;;;;;;;15.82;67.69;101574.22;5053557;28;20839;-60
2022/10/05 02:29:54;;;;;;;11.60;7.93;;;;;;;15.78;67.59;101576.72;5051179;28;20503;-60
2022/10/05 02:32:23;;;;;;;10.80;8.23;;;;;;;15.82;67.43;101577.00;5051593;28;20049;-60
2022/10/05 02:34:49;;;;;;;10.20;7.88;;;;;;;15.76;67.90;101570.56;5068170;28;20029;-60
2022/10/05 02:37:36;;;;;;;10.43;8.07;;;;;;;15.75;67.70;101568.84;5091720;28;20031;-60
2022/10/05 02:40:18;;;;;;;11.10;7.95;;;;;;;15.79;67.66;101569.16;5069961;28;20518;-59
2022/10/05 02:42:55;;;;;;;9.18;7.80;;;;;;;15.80;67.51;101560.50;5053433;28;20063;-59
2022/10/05 02:45:29;;;;;;;11.15;8.32;;;;;;;15.76;67.63;101555.69;5051815;28;20041;-59
2022/10/05 02:48:12;;;;;;;10.60;8.55;;;;;;;15.79;67.55;101552.34;5051658;28;20115;-60
2022/10/05 02:50:52;;;;;;;8.77;7.88;;;;;;;15.76;67.55;101548.16;5084689;28;20032;-60
2022/10/05 02:53:34;;;;;;;9.27;7.72;;;;;;;15.71;67.88;101548.94;5063737;28;20029;-60
2022/10/05 02:56:31;;;;;;;11.50;8.07;;;;;;;15.74;67.66;101547.56;5050536;28;20033;-60
2022/10/05 02:59:14;;;;;;;8.57;7.03;;;;;;;15.73;67.81;101545.06;5051317;28;20029;-60
2022/10/05 03:01:54;;;;;;;12.43;7.65;;;;;;;15.74;67.87;101550.38;5052684;28;20889;-60
2022/10/05 03:04:31;;;;;;;10.73;7.55;;;;;;;15.73;67.99;101542.25;5051221;28;20487;-61
2022/10/05 03:07:08;;;;;;;10.43;7.43;;;;;;;15.75;68.07;101529.66;5063597;28;20501;-59
2022/10/05 03:10:03;;;;;;;13.27;7.55;;;;;;;15.77;67.66;101538.63;5090682;28;20020;-60
2022/10/05 03:12:56;;;;;;;15.02;8.15;;;;;;;15.66;68.08;101536.88;5063492;28;20056;-61
2022/10/05 03:15:35;;;;;;;11.18;7.97;;;;;;;15.69;67.77;101523.19;5071124;28;20070;-60
2022/10/05 03:18:21;;;;;;;9.50;7.88;;;;;;;15.66;67.88;101525.69;5055012;28;20116;-59
2022/10/05 03:20:49;;;;;;;11.10;7.82;;;;;;;15.67;68.19;101532.97;5050890;28;20032;-60
2022/10/05 03:23:43;;;;;;;9.10;7.07;;;;;;;15.66;68.14;101520.94;5060832;28;20037;-60
2022/10/05 03:26:37;;;;;;;10.95;7.28;;;;;;;15.71;67.87;101522.91;5061373;28;20164;-59
2022/10/05 03:29:19;;;;;;;10.23;7.70;;;;;;;15.62;68.27;101528.16;5060743;28;20128;-60
2022/10/05 03:32:07;;;;;;;10.18;7.72;;;;;;;15.66;68.02;101526.53;5054302;28;20116;-60
2022/10/05 03:34:42;;;;;;;9.30;7.70;;;;;;;15.61;68.34;101528.44;5062424;28;20040;-60
2022/10/05 03:37:22;;;;;;;8.68;7.30;;;;;;;15.62;68.25;101525.34;5067312;28;20028;-60
2022/10/05 03:39:54;;;;;;;12.85;7.90;;;;;;;15.57;68.44;101522.53;5070675;28;20032;-60
2022/10/05 03:42:51;;;;;;;11.35;8.02;;;;;;;15.63;68.13;101515.84;5070701;28;20027;-60
2022/10/05 03:45:46;;;;;;;10.73;7.82;;;;;;;15.62;68.16;101524.53;5068451;28;20040;-60
2022/10/05 03:48:25;;;;;;;11.73;8.48;;;;;;;15.60;68.31;101521.13;5066350;28;20043;-61
2022/10/05 03:51:07;;;;;;;8.60;7.43;;;;;;;15.65;68.16;101527.66;5056302;28;20047;-60
2022/10/05 03:53:48;;;;;;;10.80;8.33;;;;;;;15.61;68.04;101522.84;5067043;28;20107;-60
2022/10/05 03:56:42;;;;;;;8.18;7.10;;;;;;;15.62;68.04;101524.53;5091015;28;20274;-61
2022/10/05 03:59:14;;;;;;;10.45;7.57;;;;;;;15.52;68.46;101522.47;5090151;28;20760;-59
2022/10/05 04:01:49;;;;;;;13.25;8.60;;;;;;;15.47;68.72;101526.09;5091227;28;20067;-58
2022/10/05 04:04:38;;;;;;;9.88;7.93;;;;;;;15.52;68.44;101530.03;5058937;28;20484;-60
2022/10/05 04:07:10;;;;;;;13.35;8.35;;;;;;;15.52;68.57;101524.44;5053647;28;20025;-59
2022/10/05 04:09:39;;;;;;;12.73;9.18;;;;;;;15.49;68.70;101527.81;5086432;28;20045;-60
2022/10/05 04:12:23;;;;;;;12.10;8.43;;;;;;;15.56;68.42;101526.47;5085909;28;20101;-60
2022/10/05 04:14:53;;;;;;;9.95;8.07;;;;;;;15.55;68.45;101524.75;5074219;28;20040;-60
2022/10/05 04:17:38;;;;;;;11.60;9.05;;;;;;;15.57;68.54;101527.31;5053905;28;20070;-59
2022/10/05 04:20:09;;;;;;;12.43;8.95;;;;;;;15.53;68.44;101528.94;5053645;28;20028;-59
2022/10/05 04:22:40;;;;;;;13.02;8.88;;;;;;;15.56;68.72;101528.38;5069321;28;20031;-60
2022/10/05 04:25:27;;;;;;;13.48;9.68;;;;;;;15.55;68.48;101530.34;5054027;28;20091;-59
2022/10/05 04:28:10;;;;;;;13.20;10.20;;;;;;;15.51;68.43;101522.78;5053530;28;20029;-59
2022/10/05 04:30:41;;;;;;;11.82;8.50;;;;;;;15.49;68.71;101525.00;5053880;28;20037;-59
2022/10/05 04:33:11;;;;;;;10.38;8.68;;;;;;;15.48;68.63;101521.34;5052894;28;20037;-60
2022/10/05 04:35:44;;;;;;;11.93;9.80;;;;;;;15.50;68.84;101519.13;5059586;28;20032;-60
2022/10/05 04:38:36;;;;;;;12.20;9.57;;;;;;;15.45;68.96;101517.16;5053701;28;20024;-60
2022/10/05 04:41:04;;;;;;;;;;;;;;;15.63;67.94;101515.84;5053638;28;20040;-59
2022/10/05 04:43:51;;;;;;;12.65;9.13;;;;;;;15.52;68.65;101513.25;5062965;28;19966;-58
2022/10/05 04:46:32;;;;;;;13.68;9.48;;;;;;;15.40;68.76;101511.50;5073523;28;20030;-59
2022/10/05 04:49:13;;;;;;;12.82;8.73;;;;;;;15.47;68.67;101506.50;5073112;28;20034;-59
2022/10/05 04:51:44;;;;;;;10.63;8.27;;;;;;;15.44;68.58;101507.09;5073924;28;20032;-59
2022/10/05 04:54:33;;;;;;;8.65;7.32;;;;;;;15.52;68.36;101508.50;5068463;28;20029;-59
2022/10/05 04:57:03;;;;;;;8.98;7.32;;;;;;;15.46;68.27;101504.84;5073399;28;20395;-59
2022/10/05 04:59:50;;;;;;;8.60;6.78;;;;;;;15.55;68.10;101502.38;5073695;28;20024;-59
2022/10/05 05:02:33;;;;;;;9.77;7.55;;;;;;;15.52;68.06;101496.47;5055336;28;20081;-60
2022/10/05 05:05:23;;;;;;;8.13;7.03;;;;;;;15.51;68.22;101503.19;5057046;28;20567;-60
2022/10/05 05:07:54;;;;;;;9.77;6.60;;;;;;;15.53;67.67;101495.38;5073464;28;20395;-60
2022/10/05 05:10:58;;;;;;;8.13;6.00;;;;;;;15.51;68.00;101497.59;5065447;28;20439;-60
2022/10/05 05:13:56;;;;;;;8.00;6.53;;;;;;;15.53;67.72;101492.59;5053972;28;20084;-60
2022/10/05 05:16:41;;;;;;;9.95;6.55;;;;;;;15.52;67.63;101493.66;5053606;28;20056;-60
2022/10/05 05:19:19;;;;;;;7.25;6.43;;;;;;;15.46;67.99;101499.25;5053217;28;20036;-60
2022/10/05 05:21:53;;;;;;;7.88;6.60;;;;;;;15.44;67.93;101489.41;5071227;28;20118;-60
2022/10/05 05:24:24;;;;;;;7.47;6.50;;;;;;;15.46;67.71;101498.41;5063508;28;20084;-60
2022/10/05 05:27:25;;;;;;;9.95;6.53;;;;;;;15.46;68.04;101492.81;5059980;28;20040;-60
2022/10/05 05:30:02;;;;;;;8.23;6.20;;;;;;;15.42;67.96;101492.50;5061275;28;20075;-60
2022/10/05 05:33:00;;;;;;;7.82;6.05;;;;;;;15.43;68.01;101493.34;5061203;28;20412;-59
2022/10/05 05:35:53;;;;;;;11.23;6.70;;;;;;;15.40;68.02;101489.13;5061926;28;20372;-60
2022/10/05 05:38:40;;;;;;;10.45;6.13;;;;;;;15.42;67.85;101486.91;5057636;28;20037;-59
2022/10/05 05:41:10;;;;;;;7.72;6.30;;;;;;;15.31;68.48;101479.56;5064493;28;20036;-60
2022/10/05 05:43:52;;;;;;;8.63;6.70;;;;;;;15.33;68.27;101470.91;5053250;28;20547;-60
2022/10/05 05:46:32;;;;;;;10.88;5.88;;;;;;;15.37;68.29;101472.91;5084072;28;20043;-60
2022/10/05 05:49:06;;;;;;;9.27;6.50;;;;;;;15.30;68.39;101477.03;5066193;28;20563;-59
2022/10/05 05:51:38;;;;;;;10.45;6.28;;;;;;;15.32;68.51;101472.00;5063912;28;20039;-60
2022/10/05 05:54:14;;;;;;;7.60;6.18;;;;;;;15.39;68.14;101467.88;5064748;28;20025;-60
2022/10/05 05:56:52;;;;;;;9.27;6.60;;;;;;;15.38;67.94;101474.56;5057010;28;20718;-59
2022/10/05 05:59:35;;;;;;;7.72;5.55;;;;;;;15.42;67.80;101472.91;5061325;28;20028;-60
2022/10/05 06:02:09;;;;;;;8.00;5.50;;;;;;;15.45;67.67;101469.59;5055581;28;20114;-58
2022/10/05 06:04:40;;;;;;;8.15;5.40;;;;;;;15.33;67.89;101471.75;5065092;28;20132;-58
2022/10/05 06:07:13;;;;;;;7.43;5.40;;;;;;;15.36;68.02;101474.00;5068931;28;20036;-59
2022/10/05 06:09:45;;;;;;;6.95;5.13;;;;;;;15.36;67.65;101470.34;5063196;28;20111;-58
2022/10/05 06:12:17;;;;;;;7.97;5.07;;;;;;;15.39;67.78;101475.41;5062041;28;20537;-59
2022/10/05 06:14:54;;;;;;;11.32;4.97;;;;;;;15.36;68.02;101467.56;5051982;28;20074;-59
2022/10/05 06:17:27;;;;;;;5.47;4.70;;;;;;;15.33;67.83;101471.75;5065651;28;20036;-60
2022/10/05 06:19:58;;;;;;;7.90;4.85;;;;;;;15.32;67.81;101472.84;5081492;28;20107;-60
2022/10/05 06:22:36;;;;;;;6.18;4.70;;;;;;;15.36;67.85;101465.59;5063916;28;20028;-63
2022/10/05 06:25:10;;;;;;;6.43;4.60;;;;;;;15.33;67.91;101465.31;5067158;28;20067;-60
2022/10/05 06:27:56;;;;;;;6.00;4.63;;;;;;;15.34;67.59;101467.84;5069827;28;20040;-60
2022/10/05 06:30:22;;;;;;;6.20;4.28;;;;;;;15.31;67.84;101461.94;5066074;28;20499;-60
2022/10/05 06:33:16;;;;;;;5.18;4.45;;;;;;;15.36;67.76;101476.78;5060725;28;20041;-60
2022/10/05 06:36:09;;;;;;;5.60;4.53;;;;;;;15.32;67.97;101469.22;5058263;28;20392;-61
2022/10/05 06:38:53;;;;;;;5.80;4.25;;;;;;;15.32;67.93;101458.84;5051987;28;20083;-60
2022/10/05 06:41:56;;;;;;;6.03;4.60;;;;;;;15.36;67.78;101471.19;5049877;28;20508;-59
2022/10/05 06:44:32;;;;;;;7.88;4.72;;;;;;;15.26;68.09;101462.75;5062678;28;20036;-59
2022/10/05 06:47:14;;;;;;;6.22;5.05;;;;;;;15.27;68.41;101477.56;5066659;28;20040;-60
2022/10/05 06:49:52;;;;;;;5.57;4.97;;;;;;;15.28;68.40;101468.91;5056685;28;20037;-60
2022/10/05 06:52:38;;;;;;;6.88;4.80;;;;;;;15.25;68.33;101466.69;5058981;28;20079;-59
2022/10/05 06:55:22;;;;;;;8.65;4.72;;;;;;;15.33;68.17;101471.75;5063778;28;20489;-59
2022/10/05 06:58:27;;;;;;;8.90;5.60;;;;;;;15.36;68.03;101476.78;5068821;28;20040;-60
2022/10/05 07:01:11;;;;;;;6.93;5.18;;;;;;;15.32;68.17;101481.22;5069162;28;20543;-59
2022/10/05 07:03:56;;;;;;;5.40;4.90;;;;;;;15.34;68.12;101473.44;5070309;28;20188;-60
2022/10/05 07:06:36;;;;;;;7.10;5.68;;;;;;;15.35;68.21;101480.69;5068281;28;20032;-59
2022/10/05 07:09:31;;;;;;;9.27;5.20;;;;;;;15.31;68.48;101479.56;5086206;28;20111;-59
2022/10/05 07:12:30;;;;;;;5.85;4.75;;;;;;;15.38;68.36;101473.75;5069636;28;20090;-59
2022/10/05 07:15:13;;;;;;;6.28;5.32;;;;;;;15.42;67.78;101470.13;5074527;28;20024;-60
2022/10/05 07:17:38;;;;;;;;;;;;;;;15.53;67.54;101470.19;5088233;28;20035;-59
2022/10/05 07:20:03;;;;;;;6.93;5.43;;;;;;;15.43;67.74;101471.81;5085910;28;19919;-60
2022/10/05 07:22:39;;;;;;;5.97;4.80;;;;;;;15.42;68.04;101474.88;5090142;28;20277;-60
2022/10/05 07:25:14;;;;;;;10.38;5.38;;;;;;;15.44;68.04;101476.31;5090082;28;20047;-60
2022/10/05 07:27:52;;;;;;;7.82;4.72;;;;;;;15.39;68.13;101476.25;5090803;28;20059;-60
2022/10/05 07:30:18;;;;;;;5.10;4.57;;;;;;;15.42;68.18;101469.28;5086483;28;20483;-60
2022/10/05 07:32:59;;;;;;;6.80;5.20;;;;;;;15.33;68.42;101477.34;5083126;28;20040;-60
2022/10/05 07:38:44;;;;;;;5.80;4.80;;;;;;;15.45;68.31;101474.34;5087857;28;20062;-59
2022/10/05 07:41:22;;;;;;;6.60;4.90;;;;;;;15.51;68.11;101473.25;5094743;28;20092;-59
2022/10/05 07:44:11;;;;;;;9.43;5.25;;;;;;;15.50;68.15;101479.13;5086918;28;20028;-59
2022/10/05 07:46:52;;;;;;;8.20;4.80;;;;;;;15.55;68.04;101479.97;5091568;28;20079;-59
2022/10/05 07:49:20;;;;;;;9.68;5.07;;;;;;;15.56;68.30;101480.81;5094423;28;20531;-59
2022/10/05 07:51:51;;;;;;;8.05;5.05;;;;;;;15.59;67.88;101488.69;5086994;28;20024;-60
2022/10/05 07:54:43;;;;;;;6.33;4.80;;;;;;;15.58;68.00;101492.59;5087852;28;20487;-60
2022/10/05 07:57:48;;;;;;;5.55;4.75;;;;;;;15.55;68.24;101479.16;5082960;28;20077;-59
2022/10/05 08:00:19;;;;;;;7.53;5.05;;;;;;;15.55;68.26;101490.34;5045663;28;20082;-60
2022/10/05 08:02:50;;;;;;;6.97;4.88;;;;;;;15.54;68.28;101477.47;5072436;28;20024;-60
2022/10/05 08:05:18;;;;;;;8.90;4.35;;;;;;;15.59;68.23;101488.69;5080979;28;20102;-60
2022/10/05 08:07:46;;;;;;;5.90;4.10;;;;;;;15.62;68.16;101482.56;5080797;28;20525;-60
2022/10/05 08:10:22;;;;;;;4.90;4.15;;;;;;;15.63;68.20;101481.44;5080120;28;20025;-60
2022/10/05 08:13:01;;;;;;;5.70;4.13;;;;;;;15.66;68.13;101481.75;5059680;28;20024;-60
2022/10/05 08:15:34;;;;;;;8.05;4.82;;;;;;;15.64;68.37;101477.50;5072060;28;20816;-60
2022/10/05 08:18:18;;;;;;;;;;;;;;;15.77;67.73;101482.66;5069534;28;20543;-60
2022/10/05 08:20:48;;;;;;;5.10;3.55;;;;;;;15.66;68.28;101467.75;5073098;28;20406;-61
2022/10/05 08:24:02;;;;;;;4.82;4.03;;;;;;;15.71;68.10;101466.94;5078664;28;20495;-60
2022/10/05 08:26:39;;;;;;;4.90;4.10;;;;;;;15.76;68.20;101463.31;5065501;28;20051;-60
2022/10/05 08:29:28;;;;;;;6.05;3.88;;;;;;;15.74;68.09;101458.00;5090179;28;20937;-60
2022/10/05 08:32:02;;;;;;;5.95;4.18;;;;;;;15.74;68.09;101459.97;5082468;28;20020;-60
2022/10/05 08:34:45;;;;;;;6.82;3.67;;;;;;;15.74;68.27;101452.41;5052036;28;20037;-60
2022/10/05 08:37:18;;;;;;;7.20;4.20;;;;;;;15.76;68.59;101457.72;5085239;28;20032;-60
2022/10/05 08:40:25;;;;;;;5.93;4.03;;;;;;;15.82;68.07;101456.66;5061388;28;20024;-60
2022/10/05 08:43:12;;;;;;;5.45;4.10;;;;;;;15.82;67.98;101453.84;5083406;28;20066;-59
2022/10/05 08:46:01;;;;;;;9.05;4.50;;;;;;;15.80;68.08;101454.13;5088654;28;20023;-60
2022/10/05 08:48:55;;;;;;;9.35;4.30;;;;;;;15.82;69.02;101451.88;5085328;28;20028;-60
2022/10/05 08:51:47;;;;;;;8.18;3.33;;;;;;;15.89;67.83;101452.47;5089134;28;20032;-61
2022/10/05 08:54:19;;;;;;;7.20;4.15;;;;;;;15.87;68.16;101440.69;5091415;28;20031;-60
2022/10/05 08:57:15;;;;;;;7.10;4.13;;;;;;;15.89;68.04;101449.69;5081657;28;20025;-60
2022/10/05 09:00:03;;;;;;;5.43;3.90;;;;;;;15.92;68.05;101439.91;5068935;28;20173;-59
2022/10/05 09:03:07;;;;;;;5.72;4.00;;;;;;;15.95;68.10;101445.78;5075843;28;20112;-58
2022/10/05 09:05:57;;;;;;;6.32;3.70;;;;;;;16.01;68.25;101443.00;5071564;28;20476;-58
2022/10/05 09:08:50;;;;;;;4.70;3.40;;;;;;;16.03;68.11;101437.94;5074377;28;20029;-58
2022/10/05 09:11:33;;;;;;;4.72;3.70;;;;;;;16.02;67.93;101436.28;5069823;28;20060;-60
2022/10/05 09:14:20;;;;;;;4.72;3.88;;;;;;;16.02;67.86;101439.06;5069690;28;20055;-60
2022/10/05 09:16:51;;;;;;;6.70;3.85;;;;;;;16.00;68.09;101430.97;5083392;28;20029;-61
2022/10/05 09:20:05;;;;;;;3.80;3.28;;;;;;;16.08;68.09;101422.03;5080087;28;20066;-61
2022/10/05 09:22:43;;;;;;;5.15;3.72;;;;;;;16.08;68.46;101433.22;5067124;28;20117;-61
2022/10/05 09:25:21;;;;;;;5.78;3.80;;;;;;;16.11;68.07;101438.28;5075484;28;20113;-61
2022/10/05 09:28:08;;;;;;;7.47;3.60;;;;;;;16.16;67.48;101423.44;5071283;28;20025;-61
2022/10/05 09:30:55;;;;;;;5.40;3.67;;;;;;;16.19;68.00;101423.72;5066100;28;20044;-59
2022/10/05 09:33:47;;;;;;;3.92;3.40;;;;;;;16.21;67.85;101426.25;5033955;28;1058424;-59
2022/10/05 09:36:45;;;;;;;;;;;;;;;16.32;67.40;101416.75;5072098;28;20048;-60
2022/10/05 09:39:26;;;;;;;6.78;3.03;;;;;;;16.30;67.93;101418.13;5074412;28;19922;-60
2022/10/05 09:42:09;;;;;;;3.58;3.28;;;;;;;16.35;67.92;101426.56;5052114;28;20047;-59
2022/10/05 09:44:58;;;;;;;8.10;3.65;;;;;;;16.35;68.09;101421.81;5052571;28;20036;-59
2022/10/05 09:48:04;;;;;;;8.02;3.70;;;;;;;16.40;67.75;101415.34;5052285;28;20028;-59
2022/10/05 09:50:43;;;;;;;8.30;4.13;;;;;;;16.37;67.55;101421.50;5067503;28;20480;-59
2022/10/05 09:53:39;;;;;;;5.30;3.47;;;;;;;16.39;67.53;101414.53;5071440;28;20028;-59
2022/10/05 09:56:26;;;;;;;5.40;3.55;;;;;;;16.37;67.54;101411.13;5082277;28;20054;-59
2022/10/05 09:59:13;;;;;;;6.28;3.53;;;;;;;16.39;67.10;101411.72;5086857;28;20551;-60
2022/10/05 10:02:04;;;;;;;5.07;3.35;;;;;;;16.43;67.25;101400.78;5071049;28;20028;-59
2022/10/05 10:05:04;;;;;;;5.97;3.42;;;;;;;16.47;67.60;101401.91;5070356;28;20549;-60
2022/10/05 10:07:41;;;;;;;4.88;3.40;;;;;;;16.53;67.36;101402.75;5065066;28;20032;-60
2022/10/05 10:10:47;;;;;;;5.43;3.20;;;;;;;16.56;67.22;101389.03;5063047;28;20037;-59
2022/10/05 10:13:21;;;;;;;3.83;3.10;;;;;;;16.62;67.54;101395.44;5071595;28;20044;-61
2022/10/05 10:15:56;;;;;;;5.70;3.08;;;;;;;16.66;67.01;101389.03;5070103;28;20136;-59
2022/10/05 10:18:44;;;;;;;4.90;3.20;;;;;;;16.70;67.18;101389.28;5069249;28;20039;-59
2022/10/05 10:21:44;;;;;;;6.63;3.50;;;;;;;16.76;67.29;101382.59;5090492;28;20098;-61
2022/10/05 10:24:36;;;;;;;7.97;3.28;;;;;;;16.81;66.96;101376.13;5070615;28;20074;-60
2022/10/05 10:27:30;;;;;;;4.47;3.15;;;;;;;16.88;66.77;101376.69;5052940;28;20033;-60
2022/10/05 10:30:22;;;;;;;7.05;3.30;;;;;;;16.99;67.21;101381.16;5065846;28;20028;-59
2022/10/05 10:33:37;;;;;;;5.70;3.50;;;;;;;17.09;66.40;101374.69;5051523;28;20128;-59
2022/10/05 10:36:16;;;;;;;5.43;3.20;;;;;;;17.19;66.28;101360.63;5065775;28;20869;-60
2022/10/05 10:38:57;;;;;;;6.22;3.08;;;;;;;17.22;66.09;101368.50;5071647;28;20032;-60
2022/10/05 10:42:09;;;;;;;4.78;3.30;;;;;;;17.26;66.24;101358.38;5050452;28;20040;-63
2022/10/05 10:44:53;;;;;;;4.10;3.10;;;;;;;17.35;66.52;101359.47;5051183;28;20055;-60
2022/10/05 10:47:39;;;;;;;4.57;3.35;;;;;;;17.41;65.65;101366.75;5057980;28;20043;-60
2022/10/05 10:50:27;;;;;;;4.35;2.97;;;;;;;17.45;65.52;101344.56;5052196;28;20028;-60
2022/10/05 10:53:15;;;;;;;3.95;2.80;;;;;;;17.52;65.70;101355.44;5062532;28;20060;-60
2022/10/05 10:56:01;;;;;;;5.47;3.10;;;;;;;17.52;65.28;101350.69;5051814;28;20094;-60
2022/10/05 10:59:19;;;;;;;4.72;3.08;;;;;;;17.58;65.45;101341.13;5050193;28;20044;-60
2022/10/05 11:02:19;;;;;;;3.85;2.75;;;;;;;17.64;65.33;101341.91;5066413;28;20040;-62
2022/10/05 11:05:02;;;;;;;3.38;2.55;;;;;;;17.70;64.82;101340.78;5067249;28;20033;-60
2022/10/05 11:07:54;;;;;;;4.55;3.15;;;;;;;17.73;64.87;101334.59;5056600;28;20028;-60
2022/10/05 11:10:25;;;;;;;6.53;2.83;;;;;;;17.73;64.54;101331.78;5052533;28;20036;-60
2022/10/05 11:13:47;;;;;;;2.95;2.47;;;;;;;17.79;64.71;101324.19;5054394;28;20155;-61
2022/10/05 11:16:15;;;;;;;4.47;2.20;;;;;;;17.83;64.20;101328.94;5046697;28;20500;-60
2022/10/05 11:19:22;;;;;;;3.92;2.50;;;;;;;17.85;64.33;101326.69;5045542;28;20028;-61
2022/10/05 11:22:09;;;;;;;3.28;2.20;;;;;;;17.87;64.11;101327.22;5060797;28;20384;-60
2022/10/05 11:24:47;;;;;;;5.53;2.40;;;;;;;17.88;64.22;101330.84;5052865;28;20036;-60
2022/10/05 11:27:51;;;;;;;3.88;2.30;;;;;;;17.89;64.52;101324.97;5050122;28;20031;-60
2022/10/05 11:30:25;;;;;;;2.58;2.13;;;;;;;17.91;64.57;101319.88;5050289;28;20029;-59
2022/10/05 11:33:10;;;;;;;8.73;2.53;;;;;;;17.92;64.30;101326.38;5049678;28;20063;-60
2022/10/05 11:35:53;;;;;;;6.38;2.60;;;;;;;17.96;63.70;101315.38;5062192;28;20024;-60
2022/10/05 11:38:41;;;;;;;7.47;2.83;;;;;;;18.02;64.06;101288.94;5090685;28;20086;-59
2022/10/05 11:41:32;;;;;;;6.38;2.25;;;;;;;18.11;64.26;101296.41;5082698;28;20063;-59
2022/10/05 11:44:37;;;;;;;8.38;2.30;;;;;;;18.24;63.86;101289.31;5069224;28;20033;-60
2022/10/05 11:47:14;;;;;;;5.75;2.05;;;;;;;18.26;63.08;101298.28;5069634;28;20044;-60
2022/10/05 11:50:15;;;;;;;3.47;1.92;;;;;;;18.35;63.38;101282.47;5066696;28;20086;-59
2022/10/05 11:52:47;;;;;;;4.93;1.88;;;;;;;18.47;63.17;101275.59;5048063;28;20037;-60
2022/10/05 11:55:16;;;;;;;2.90;2.40;;;;;;;18.49;62.52;101276.16;5060857;28;20039;-59
2022/10/05 11:57:46;;;;;;;6.22;2.13;;;;;;;18.52;62.11;101276.41;5089459;28;20536;-59
2022/10/05 12:00:17;;;;;;;3.60;2.25;;;;;;;18.56;61.97;101265.41;5089986;28;20557;-59
2022/10/05 12:02:56;;;;;;;4.38;2.28;;;;;;;18.64;62.22;101267.56;5061428;28;20083;-59
2022/10/05 12:05:24;;;;;;;5.05;2.00;;;;;;;18.76;61.87;101255.94;5049517;28;20039;-59
2022/10/05 12:08:17;;;;;;;3.70;1.90;;;;;;;18.86;61.56;101250.19;5052068;28;20473;-59
2022/10/05 12:11:13;;;;;;;2.42;1.90;;;;;;;18.94;61.92;101235.47;5055206;28;20032;-59
2022/10/05 12:13:57;;;;;;;3.70;1.95;;;;;;;19.00;60.68;101241.88;5049667;28;20025;-60
2022/10/05 12:16:34;;;;;;;4.72;1.80;;;;;;;19.11;61.11;101237.81;5049959;28;20515;-60
2022/10/05 12:19:13;;;;;;;2.20;1.88;;;;;;;19.18;60.96;101234.59;5049118;28;20112;-60
2022/10/05 12:21:48;;;;;;;5.68;1.75;;;;;;;19.28;60.93;101234.47;5049722;28;20033;-60
2022/10/05 12:24:36;;;;;;;4.03;1.83;;;;;;;19.31;60.46;101234.72;5053413;28;20074;-60
2022/10/05 12:27:17;;;;;;;4.05;1.50;;;;;;;19.37;60.60;101216.63;5077878;28;20111;-60
2022/10/05 12:30:05;;;;;;;3.75;1.40;;;;;;;19.44;60.81;101218.19;5073366;28;20546;-60
2022/10/05 12:32:46;;;;;;;5.00;2.05;;;;;;;19.53;59.80;101214.41;5072512;28;20048;-60
2022/10/05 12:35:51;;;;;;;3.47;2.22;;;;;;;19.54;60.39;101215.25;5073319;28;20078;-60
2022/10/05 12:38:27;;;;;;;3.85;1.70;;;;;;;19.55;59.55;101219.72;5072174;28;20064;-60